Minneiska, Minnesota
Current Conditions -  °F | °C
As of 6:33 PM on Saturday 25 Oct 2014 (Local Time) from KONA Reporting Station
Clear Clear  
Wind Chill: 59°   Ceiling: Unl
Heat Index: 59°   Visibility: 10mi
Dew Point: 30°   Wind: 7mph
Humidity: 34%   Direction: 300°WNW
Pressure: 30.01"   Gusts: NA
Location:  44.1503°N, 91.9879°W
Report Text: KONA 252333Z AUTO 30006KT 10SM CLR 15/M01 A3001 RMK AO2
Loading
Personal Weather Stations






























Interactive Weather Map
Tropical Storm Tracking
New forecast layout! Learn more

10-Day Weather Forecast

Advertisements
Track Severe Weather on mobile